Latest Weather Observations for Mount Keith

IDW60801

Issued at 6:43 am WST Friday 19 August 2022 (issued every 10 minutes, with the page automatically refreshed every 10 minutes)

About weather observations | Map of weather stations | Latest weather observations for WA | Other Formats
Station Details ID: 512019 Name: MOUNT KEITH Lat: -27.29 Lon: 120.55 Height: 542.33 m
Data from the previous 72 hours. | See also: Recent months for locations in Western Australia
Date/Time
WST
Temp
°C
App
Temp
°C
Dew
Point
°C
Rel
Hum
%
Delta-T
°C
Wind Press
QNH
hPa
Press
MSL
hPa
Rain since
9am
mm
Dir  Spd
km/h
Gust
km/h
Spd
kts
Gust
kts
19/06:30am 6.1 1.9 -0.6 62 2.6 SE 11 13 6 7 1028.3 1027.6 0.0
19/06:00am 5.4 1.6 -0.8 64 2.4 SSE 9 11 5 6 1028.2 1027.5 0.0
19/05:30am 5.6 2.2 -0.7 64 2.5 SSE 7 9 4 5 1028.1 1027.4 0.0
19/05:00am 5.2 1.4 -1.0 64 2.4 SSE 9 9 5 5 1027.8 1027.0 0.0
19/04:30am 6.2 2.8 -0.7 61 2.7 SSE 7 9 4 5 1027.8 1027.0 0.0
19/04:00am 6.9 3.7 -0.8 58 3.0 SSE 6 7 3 4 1027.6 1026.8 0.0
19/03:30am 7.5 4.1 -0.5 57 3.2 SE 7 9 4 5 1027.5 1026.7 0.0
19/03:00am 7.2 3.4 -0.7 57 3.1 SSE 9 9 5 5 1027.5 1026.7 0.0
19/02:30am 7.1 3.6 -1.1 56 3.2 SSE 7 9 4 5 1027.5 1026.7 0.0
19/02:00am 7.6 4.4 -0.8 55 3.3 SSE 6 7 3 4 1027.5 1026.7 0.0
19/01:30am 7.7 4.2 -1.0 54 3.4 SE 7 9 4 5 1027.7 1026.9 0.0
19/01:00am 8.3 4.8 -1.0 52 3.7 SE 7 9 4 5 1027.7 1026.9 0.0
19/12:30am 9.2 5.4 -0.9 49 4.1 SE 9 13 5 7 1027.8 1027.0 0.0
19/12:00am 9.7 5.5 -1.1 47 4.3 SE 11 15 6 8 1027.8 1027.0 0.0
 
Date/Time
WST
Temp
°C
App
Temp
°C
Dew
Point
°C
Rel
Hum
%
Delta-T
°C
Wind Press
QNH
hPa
Press
MSL
hPa
Rain since
9am
mm
Dir  Spd
km/h
Gust
km/h
Spd
kts
Gust
kts
18/11:30pm 10.2 5.6 -1.2 45 4.6 SE 13 15 7 8 1027.9 1027.2 0.0
18/11:00pm 10.6 5.6 -1.1 44 4.7 SE 15 19 8 10 1027.8 1027.0 0.0
18/10:30pm 10.8 6.1 -1.6 42 5.0 SE 13 15 7 8 1027.7 1026.9 0.0
18/10:00pm 11.2 6.1 -1.9 40 5.2 SE 15 17 8 9 1027.7 1026.9 0.0
18/09:30pm 11.0 6.2 -2.8 38 5.4 SSE 13 17 7 9 1027.7 1026.9 0.0
18/09:00pm 11.3 6.5 -2.8 37 5.5 SSE 13 17 7 9 1027.7 1026.9 0.0
18/08:30pm 12.0 7.1 -3.0 35 5.9 SSE 13 17 7 9 1027.6 1026.8 0.0
18/08:00pm 12.8 7.9 -3.0 33 6.3 SSE 13 17 7 9 1027.5 1026.7 0.0
18/07:30pm 13.6 8.4 -2.8 32 6.6 SSE 15 20 8 11 1027.1 1026.3 0.0
18/07:00pm 14.0 8.7 -3.3 30 6.9 SSE 15 19 8 10 1026.6 1025.9 0.0
18/06:30pm 14.7 9.5 -3.1 29 7.2 SSE 15 17 8 9 1026.3 1025.6 0.0
18/06:00pm 15.5 9.9 -2.9 28 7.5 SE 17 20 9 11 1025.9 1025.1 0.0
18/05:30pm 16.3 10.6 -3.7 25 8.2 SSE 17 20 9 11 1025.5 1024.7 0.0
18/05:00pm 16.8 10.6 -4.4 23 8.5 SE 19 24 10 13 1025.3 1024.5 0.0
18/04:30pm 17.3 10.9 -5.2 21 9.0 SE 20 28 11 15 1025.2 1024.4 0.0
18/04:00pm 17.2 10.9 -4.1 23 8.6 SE 20 32 11 17 1025.0 1024.2 0.0
18/03:30pm 17.7 11.6 -2.5 25 8.6 SSE 20 32 11 17 1024.9 1024.1 0.0
18/03:00pm 18.5 11.9 -3.0 23 9.0 SE 22 32 12 17 1024.7 1024.0 0.0
18/02:30pm 17.5 11.4 -2.2 26 8.4 SSE 20 32 11 17 1024.7 1024.0 0.0
18/02:00pm 16.7 10.7 -1.9 28 7.9 SSE 20 33 11 18 1024.9 1024.1 0.0
18/01:30pm 16.4 10.5 -0.8 31 7.5 SSE 20 28 11 15 1024.9 1024.1 0.0
18/01:00pm 16.4 10.2 -0.3 32 7.3 SSE 22 33 12 18 1025.2 1024.4 0.0
18/12:30pm 15.6 9.4 -0.2 34 6.9 SE 22 35 12 19 1025.7 1024.9 0.0
18/12:00pm 15.0 9.2 2.5 43 5.7 SE 22 35 12 19 1026.2 1025.4 0.0
18/11:30am 14.0 9.0 3.5 49 4.9 SSE 19 28 10 15 1026.3 1025.6 0.0
18/11:00am 13.1 8.1 3.5 52 4.4 SSE 19 30 10 16 1026.6 1025.9 0.0
18/10:30am 12.0 6.8 3.3 55 4.0 SSE 20 30 11 16 1026.6 1025.9 0.0
18/10:00am 12.2 6.3 3.9 57 3.8 SSE 24 33 13 18 1026.7 1026.0 0.0
18/09:30am 10.8 4.9 3.8 62 3.2 SSE 24 32 13 17 1026.5 1025.8 0.0
18/09:00am 9.7 4.2 3.9 67 2.6 SSE 22 30 12 16 1026.3 1025.6 0.2
18/08:30am 9.1 3.3 4.3 72 2.2 S 24 33 13 18 1026.1 1025.3 0.2
18/08:00am 8.4 3.4 4.6 77 1.7 S 20 28 11 15 1025.6 1024.8 0.2
18/07:30am 7.8 3.0 4.9 82 1.3 S 19 28 10 15 1025.2 1024.4 0.2
18/07:00am 7.1 2.7 4.8 85 1.0 SSW 17 20 9 11 1024.7 1024.0 0.2
18/06:30am 6.9 2.8 4.6 85 1.0 SSW 15 19 8 10 1024.4 1023.6 0.2
18/06:00am 7.1 3.4 4.2 82 1.3 SSW 13 17 7 9 1024.0 1023.2 0.2
18/05:30am 7.5 3.4 4.3 80 1.4 SSW 15 20 8 11 1023.6 1022.8 0.2
18/05:00am 7.6 4.2 4.0 78 1.6 SW 11 15 6 8 1023.2 1022.4 0.2
18/04:30am 8.3 3.4 3.9 74 2.0 SW 19 24 10 13 1022.7 1021.9 0.2
18/04:00am 8.6 4.1 4.2 74 2.0 SW 17 24 9 13 1022.5 1021.7 0.2
18/03:30am 9.2 3.4 4.4 72 2.2 SW 24 32 13 17 1022.3 1021.5 0.2
18/03:00am 9.6 4.8 5.4 75 2.0 SW 20 30 11 16 1022.1 1021.3 0.2
18/02:30am 10.0 4.5 6.0 76 1.9 SW 24 33 13 18 1021.7 1020.9 0.2
18/02:00am 10.4 5.2 7.1 80 1.6 SW 24 33 13 18 1021.5 1020.6 0.2
18/01:30am 10.1 5.0 7.7 85 1.2 SW 24 35 13 19 1021.4 1020.5 0.2
18/01:10am 9.8 4.1 8.2 90 0.8 SW 28 43 15 23 1021.4 1020.5 0.2
18/01:09am 9.9 3.8 8.3 90 0.8 SW 30 46 16 25 1021.5 1020.6 0.2
18/01:00am 10.0 3.3 8.3 89 0.8 SW 33 46 18 25 1021.4 1020.5 0.2
18/12:52am 9.8 2.0 8.4 91 0.7 SW 39 57 21 31 1021.2 1020.3 0.2
18/12:44am 11.3 5.1 9.4 88 1.0 SW 32 54 17 29 1021.0 1020.1 0.0
18/12:30am 11.7 5.8 10.3 91 0.7 WSW 32 43 17 23 1020.7 1019.9 0.0
18/12:21am 11.6 5.6 10.2 91 0.7 WSW 32 50 17 27 1020.5 1019.7 0.0
18/12:09am 11.8 5.6 10.0 89 0.9 SW 33 46 18 25 1020.3 1019.5 0.0
18/12:00am 12.3 6.3 10.2 87 1.1 WSW 32 56 17 30 1020.2 1019.4 0.0
 
Date/Time
WST
Temp
°C
App
Temp
°C
Dew
Point
°C
Rel
Hum
%
Delta-T
°C
Wind Press
QNH
hPa
Press
MSL
hPa
Rain since
9am
mm
Dir  Spd
km/h
Gust
km/h
Spd
kts
Gust
kts
17/11:57pm 12.9 7.7 10.4 85 1.3 WSW 28 46 15 25 1020.0 1019.2 0.0
17/11:30pm 14.1 6.4 10.1 77 2.1 WSW 41 50 22 27 1019.7 1018.8 0.0
17/11:11pm 16.1 9.7 8.6 61 3.9 W 32 52 17 28 1019.3 1018.4 0.0
17/11:08pm 17.1 10.5 6.0 48 5.6 W 30 52 16 28 1019.1 1018.2 0.0
17/11:00pm 17.1 10.5 6.0 48 5.6 WNW 30 44 16 24 1018.8 1018.0 0.0
17/10:30pm 17.0 11.4 5.6 47 5.7 WNW 24 33 13 18 1018.3 1017.5 0.0
17/10:00pm 16.9 12.0 5.2 46 5.8 NW 20 28 11 15 1018.3 1017.5 0.0
17/09:30pm 16.8 12.2 5.4 47 5.6 WNW 19 30 10 16 1018.4 1017.6 0.0
17/09:00pm 16.6 11.9 5.3 47 5.6 WNW 19 24 10 13 1018.5 1017.7 0.0
17/08:30pm 16.4 12.0 4.8 46 5.7 WNW 17 24 9 13 1018.2 1017.3 0.0
17/08:00pm 16.7 12.3 4.7 45 5.8 WNW 17 22 9 12 1017.8 1016.9 0.0
17/07:30pm 17.1 12.7 4.8 44 6.0 WNW 17 22 9 12 1017.6 1016.7 0.0
17/07:00pm 17.6 12.7 4.9 43 6.2 WNW 20 28 11 15 1017.4 1016.5 0.0
17/06:30pm 17.9 12.5 4.5 41 6.6 WNW 22 33 12 18 1016.9 1016.1 0.0
17/06:00pm 18.2 13.2 4.4 40 6.8 WNW 20 28 11 15 1016.6 1015.7 0.0
17/05:30pm 18.8 11.4 3.8 37 7.3 WNW 32 43 17 23 1016.4 1015.5 0.0
17/05:00pm 19.5 12.1 4.0 36 7.6 WNW 32 43 17 23 1016.1 1015.2 0.0
17/04:30pm 20.0 12.5 3.7 34 8.0 WNW 32 44 17 24 1015.8 1014.9 0.0
17/04:00pm 20.2 13.2 3.9 34 8.0 WNW 30 43 16 23 1015.8 1014.9 0.0
17/03:30pm 20.6 12.1 2.9 31 8.6 W 37 50 20 27 1015.8 1014.9 0.0
17/03:23pm 20.7 12.2 3.4 32 8.5 W 37 56 20 30 1015.8 1014.9 0.0
17/03:14pm 20.5 13.4 3.7 33 8.2 WNW 30 50 16 27 1015.6 1014.7 0.0
17/03:09pm 21.0 14.0 4.1 33 8.4 WNW 30 48 16 26 1015.7 1014.8 0.0
17/03:00pm 20.8 12.8 4.0 33 8.3 WNW 35 48 19 26 1015.6 1014.7 0.0
17/02:30pm 20.6 13.2 3.8 33 8.3 W 32 43 17 23 1015.8 1014.9 0.0
17/02:20pm 20.9 14.4 4.5 34 8.2 WNW 28 46 15 25 1015.8 1014.9 0.0
17/02:00pm 20.5 12.9 4.1 34 8.1 WNW 33 43 18 23 1015.9 1015.0 0.0
17/01:48pm 20.2 13.5 3.9 34 8.0 WNW 28 46 15 25 1016.0 1015.1 0.0
17/01:30pm 19.7 12.4 4.6 37 7.5 WNW 32 44 17 24 1016.1 1015.2 0.0
17/01:00pm 19.8 13.2 4.3 36 7.7 WNW 28 43 15 23 1016.4 1015.5 0.0
17/12:30pm 19.5 12.5 4.0 36 7.6 WNW 30 44 16 24 1016.8 1016.0 0.0
17/12:00pm 19.8 12.9 4.7 37 7.5 W 30 44 16 24 1017.5 1016.6 0.0
17/11:30am 18.4 11.1 4.6 40 6.8 WNW 32 44 17 24 1018.1 1017.2 0.0
17/11:00am 18.1 10.7 5.0 42 6.5 WNW 33 44 18 24 1018.3 1017.5 0.0
17/10:30am 18.2 11.5 5.4 43 6.4 WNW 30 43 16 23 1018.6 1017.8 0.0
17/10:00am 16.7 9.6 5.6 48 5.5 W 32 44 17 24 1019.0 1018.1 0.0
17/09:30am 16.9 9.7 5.2 46 5.8 W 32 43 17 23 1018.7 1017.9 0.0
17/09:00am 15.8 8.9 6.5 54 4.7 W 32 43 17 23 1018.5 1017.7 0.0
17/08:30am 14.9 8.1 7.0 59 4.0 W 32 43 17 23 1018.2 1017.3 0.0
17/08:00am 14.3 9.1 8.7 69 2.9 W 26 33 14 18 1018.0 1017.1 0.0
17/07:30am 14.1 8.9 10.3 78 2.0 W 28 39 15 21 1017.7 1016.8 0.0
17/07:13am 13.9 8.4 10.5 80 1.8 W 30 43 16 23 1017.5 1016.6 0.0
17/07:00am 13.7 9.7 11.8 88 1.0 W 24 32 13 17 1017.3 1016.4 0.0
17/06:30am 13.6 10.1 12.3 92 0.7 W 22 32 12 17 1016.9 1016.1 0.0
17/06:11am 13.3 10.4 12.4 94 0.5 W 19 22 10 12 1016.6 1015.7 0.0
17/06:00am 13.3 11.2 12.4 94 0.5 W 15 20 8 11 1016.4 1015.5 0.0
17/05:59am 13.3 11.2 12.4 94 0.5 W 15 20 8 11 1016.4 1015.5 0.0
17/05:50am 13.2 10.7 12.4 95 0.4 W 17 22 9 12 1016.4 1015.5 0.0
17/05:31am 13.1 9.5 12.0 93 0.6 WSW 22 28 12 15 1016.1 1015.2 0.0
17/05:30am 13.1 9.9 12.0 93 0.6 WSW 20 28 11 15 1016.0 1015.1 0.0
17/05:00am 13.5 11.0 12.2 92 0.7 WSW 17 22 9 12 1015.5 1014.6 0.0
17/04:54am 13.5 11.0 12.2 92 0.7 WSW 17 20 9 11 1015.4 1014.5 0.0
17/04:36am 13.8 11.3 12.2 90 0.9 WSW 17 24 9 13 1015.4 1014.5 0.0
17/04:30am 13.9 10.4 12.1 89 1.0 WSW 22 30 12 16 1015.4 1014.5 0.0
17/04:00am 14.7 11.5 11.8 83 1.6 WSW 20 28 11 15 1014.6 1013.7 0.0
17/03:30am 14.6 11.1 12.3 86 1.3 WSW 22 33 12 18 1014.5 1013.6 0.0
17/03:21am 15.3 11.2 12.6 84 1.5 WSW 26 35 14 19 1014.4 1013.5 0.0
17/03:00am 16.3 13.4 12.8 80 2.0 W 20 26 11 14 1014.1 1013.2 0.0
17/02:42am 16.5 13.3 13.0 80 2.0 W 22 28 12 15 1014.3 1013.4 0.0
17/02:30am 16.7 14.0 13.4 81 1.9 W 20 28 11 15 1014.2 1013.3 0.0
17/02:15am 16.7 13.0 13.8 83 1.7 WSW 26 35 14 19 1014.1 1013.2 0.0
17/02:00am 17.5 15.2 14.2 81 1.9 WSW 19 26 10 14 1014.0 1013.1 0.0
17/01:30am 19.4 15.4 14.2 72 3.1 WNW 28 37 15 20 1013.9 1013.0 0.0
17/01:00am 20.3 17.0 14.9 71 3.2 W 26 39 14 21 1014.0 1013.1 0.0
17/12:33am 20.8 16.8 15.1 70 3.4 WNW 30 48 16 26 1013.7 1012.8 0.0
17/12:30am 20.9 16.5 15.2 70 3.5 WNW 32 48 17 26 1013.7 1012.8 0.0
17/12:10am 21.3 17.8 15.4 69 3.6 WNW 28 46 15 25 1013.5 1012.5 0.0
17/12:00am 21.4 18.2 15.3 68 3.7 WNW 26 41 14 22 1013.5 1012.5 0.0
 
Date/Time
WST
Temp
°C
App
Temp
°C
Dew
Point
°C
Rel
Hum
%
Delta-T
°C
Wind Press
QNH
hPa
Press
MSL
hPa
Rain since
9am
mm
Dir  Spd
km/h
Gust
km/h
Spd
kts
Gust
kts
16/11:30pm 21.5 18.7 15.3 68 3.8 WNW 24 33 13 18 1013.6 1012.7 0.0
16/11:00pm 21.7 19.6 15.3 67 3.9 WNW 20 33 11 18 1013.6 1012.7 0.0
16/10:30pm 21.9 18.3 15.3 66 4.0 WNW 28 39 15 21 1013.8 1012.9 0.0
16/10:00pm 22.0 19.2 15.4 66 4.0 WNW 24 33 13 18 1013.8 1012.9 0.0
16/09:30pm 22.1 20.0 15.2 65 4.2 W 20 30 11 16 1013.9 1013.0 0.0
16/09:00pm 22.4 20.0 15.3 64 4.3 W 22 30 12 16 1013.9 1013.0 0.0
16/08:30pm 22.8 19.8 14.9 61 4.8 WNW 24 33 13 18 1013.9 1013.0 0.0
16/08:00pm 23.0 20.3 14.6 59 5.1 WNW 22 33 12 18 1013.4 1012.4 0.0
16/07:30pm 23.3 20.5 14.3 57 5.4 W 22 30 12 16 1013.0 1012.1 0.0
16/07:00pm 24.0 21.1 14.1 54 6.0 W 22 32 12 17 1012.9 1012.0 0.0
16/06:30pm 25.8 22.2 11.9 42 8.1 W 22 32 12 17 1012.4 1011.5 0.0
16/06:00pm 27.9 21.9 7.2 27 11.3 NW 28 44 15 24 1012.0 1011.1 0.0
16/05:30pm 28.3 23.4 7.0 26 11.6 NW 22 33 12 18 1011.6 1010.6 0.0
16/05:00pm 28.7 22.2 6.7 25 12.0 NW 30 50 16 27 1011.2 1010.2 0.0
16/04:30pm 29.2 23.1 6.6 24 12.3 NW 28 48 15 26 1011.2 1010.2 0.0
16/04:00pm 29.6 22.7 6.3 23 12.7 NW 32 50 17 27 1011.0 1010.1 0.0
16/03:30pm 29.6 22.5 6.3 23 12.7 NW 33 59 18 32 1011.0 1010.1 0.0
16/03:00pm 29.9 22.7 5.9 22 13.0 NW 33 56 18 30 1010.9 1010.0 0.0
16/02:56pm 30.1 22.6 6.1 22 13.0 NNW 35 54 19 29 1010.9 1010.0 0.0
16/02:30pm 29.7 21.5 6.4 23 12.7 NW 39 56 21 30 1010.8 1009.9 0.0
16/02:00pm 30.7 21.6 5.9 21 13.5 NW 43 65 23 35 1010.8 1009.9 0.0
16/01:30pm 30.6 21.5 5.8 21 13.4 NNW 43 65 23 35 1010.9 1010.0 0.0
16/01:00pm 29.9 20.8 5.9 22 13.0 NNW 43 63 23 34 1011.5 1010.5 0.0
16/12:42pm 29.6 20.6 6.3 23 12.7 NW 43 61 23 33 1011.9 1010.9 0.0
16/12:30pm 29.8 19.9 6.5 23 12.7 NNW 48 69 26 37 1012.3 1011.4 0.0
16/12:17pm 29.9 20.9 6.5 23 12.8 NW 43 69 23 37 1012.3 1011.4 0.0
16/12:00pm 29.9 22.1 6.5 23 12.8 NW 37 59 20 32 1012.4 1011.5 0.0
16/11:30am 28.8 22.0 6.8 25 12.0 NW 32 50 17 27 1012.8 1011.9 0.0
16/11:00am 28.4 21.6 7.1 26 11.7 NNW 32 50 17 27 1013.6 1012.7 0.0
16/10:45am 27.9 21.0 7.2 27 11.3 NW 33 54 18 29 1013.7 1012.8 0.0
16/10:30am 27.8 21.0 7.6 28 11.1 NNW 33 50 18 27 1014.1 1013.2 0.0
16/10:00am 26.9 21.1 7.9 30 10.5 NNW 28 43 15 23 1014.5 1013.6 0.0
16/09:43am 26.3 20.5 7.8 31 10.1 NNW 28 46 15 25 1014.6 1013.7 0.0
16/09:30am 25.9 20.1 8.0 32 9.8 NNW 28 44 15 24 1014.7 1013.8 0.0
16/09:17am 25.3 19.5 7.9 33 9.5 NNW 28 48 15 26 1014.7 1013.8 0.0
16/09:00am 24.8 20.2 8.3 35 9.0 NNW 22 39 12 21 1014.8 1013.9 0.0
16/08:30am 24.0 19.5 8.4 37 8.5 NNW 22 35 12 19 1014.7 1013.8 0.0
16/08:00am 22.8 18.9 8.5 40 7.8 NNW 19 26 10 14 1014.6 1013.7 0.0
16/07:30am 22.2 18.2 8.3 41 7.5 NNW 19 26 10 14 1014.6 1013.7 0.0
16/07:00am 22.2 18.0 8.3 41 7.5 NNW 20 30 11 16 1014.4 1013.5 0.0

Other formats

Comma delimited format used in spreadsheet applications
http://www.bom.gov.au/fwo/IDW60801/IDW60801.99434.axf

JavaScript Object Notation format (JSON) in row-major order
http://www.bom.gov.au/fwo/IDW60801/IDW60801.99434.json

Data quality

Most of these data are generated automatically and are frequently updated. Quality checks on data are not normally performed. It is possible for incorrect values to appear. Refer to information at About Latest Weather Observations and please check the disclaimer before using these data.